sensor_id;sensor_type;location;lat;lon;timestamp;P1;durP1;ratioP1;P2;durP2;ratioP2
46363;SDS011;32071;49.036;9.344;2023-02-12T00:01:17;24.93;;;14.27;;
46363;SDS011;32071;49.036;9.344;2023-02-12T00:03:44;25.30;;;15.20;;
46363;SDS011;32071;49.036;9.344;2023-02-12T00:06:10;23.87;;;14.80;;
46363;SDS011;32071;49.036;9.344;2023-02-12T00:08:36;26.73;;;16.40;;
46363;SDS011;32071;49.036;9.344;2023-02-12T00:11:06;26.70;;;15.23;;
46363;SDS011;32071;49.036;9.344;2023-02-12T00:13:36;24.97;;;16.00;;
46363;SDS011;32071;49.036;9.344;2023-02-12T00:16:03;32.70;;;16.40;;
46363;SDS011;32071;49.036;9.344;2023-02-12T00:18:33;25.67;;;15.00;;
46363;SDS011;32071;49.036;9.344;2023-02-12T00:20:59;27.63;;;14.77;;
46363;SDS011;32071;49.036;9.344;2023-02-12T00:23:25;24.33;;;14.97;;
46363;SDS011;32071;49.036;9.344;2023-02-12T00:25:51;31.53;;;15.70;;
46363;SDS011;32071;49.036;9.344;2023-02-12T00:28:16;24.60;;;14.70;;
46363;SDS011;32071;49.036;9.344;2023-02-12T00:30:42;25.43;;;14.83;;
46363;SDS011;32071;49.036;9.344;2023-02-12T00:33:07;23.10;;;14.40;;
46363;SDS011;32071;49.036;9.344;2023-02-12T00:35:33;28.10;;;15.13;;
46363;SDS011;32071;49.036;9.344;2023-02-12T00:37:59;26.60;;;14.37;;
46363;SDS011;32071;49.036;9.344;2023-02-12T00:40:25;30.83;;;15.83;;
46363;SDS011;32071;49.036;9.344;2023-02-12T00:42:50;31.00;;;16.07;;
46363;SDS011;32071;49.036;9.344;2023-02-12T00:45:16;26.67;;;15.30;;
46363;SDS011;32071;49.036;9.344;2023-02-12T00:47:41;22.80;;;14.10;;
46363;SDS011;32071;49.036;9.344;2023-02-12T00:50:07;27.70;;;16.30;;
46363;SDS011;32071;49.036;9.344;2023-02-12T00:52:33;27.90;;;14.43;;
46363;SDS011;32071;49.036;9.344;2023-02-12T00:54:59;29.37;;;14.90;;
46363;SDS011;32071;49.036;9.344;2023-02-12T00:57:24;27.40;;;15.60;;
46363;SDS011;32071;49.036;9.344;2023-02-12T00:59:50;24.27;;;14.17;;
46363;SDS011;32071;49.036;9.344;2023-02-12T01:02:15;26.03;;;14.90;;
46363;SDS011;32071;49.036;9.344;2023-02-12T01:04:42;29.17;;;16.03;;
46363;SDS011;32071;49.036;9.344;2023-02-12T01:07:07;33.13;;;15.70;;
46363;SDS011;32071;49.036;9.344;2023-02-12T01:09:34;25.40;;;14.50;;
46363;SDS011;32071;49.036;9.344;2023-02-12T01:11:59;31.90;;;14.73;;
46363;SDS011;32071;49.036;9.344;2023-02-12T01:14:25;23.47;;;14.20;;
46363;SDS011;32071;49.036;9.344;2023-02-12T01:16:51;27.23;;;15.20;;
46363;SDS011;32071;49.036;9.344;2023-02-12T01:19:17;25.73;;;15.10;;
46363;SDS011;32071;49.036;9.344;2023-02-12T01:21:42;23.63;;;14.10;;
46363;SDS011;32071;49.036;9.344;2023-02-12T01:24:08;26.10;;;14.43;;
46363;SDS011;32071;49.036;9.344;2023-02-12T01:26:34;24.00;;;15.20;;
46363;SDS011;32071;49.036;9.344;2023-02-12T01:29:00;24.50;;;14.83;;
46363;SDS011;32071;49.036;9.344;2023-02-12T01:31:29;30.30;;;14.60;;
46363;SDS011;32071;49.036;9.344;2023-02-12T01:33:57;27.97;;;14.10;;
46363;SDS011;32071;49.036;9.344;2023-02-12T01:36:24;24.13;;;13.30;;
46363;SDS011;32071;49.036;9.344;2023-02-12T01:38:51;23.63;;;14.20;;
46363;SDS011;32071;49.036;9.344;2023-02-12T01:41:18;24.83;;;14.00;;
46363;SDS011;32071;49.036;9.344;2023-02-12T01:44:02;23.43;;;14.03;;
46363;SDS011;32071;49.036;9.344;2023-02-12T01:46:29;27.53;;;15.37;;
46363;SDS011;32071;49.036;9.344;2023-02-12T01:48:55;25.33;;;14.10;;
46363;SDS011;32071;49.036;9.344;2023-02-12T01:51:20;29.33;;;14.60;;
46363;SDS011;32071;49.036;9.344;2023-02-12T01:53:49;23.40;;;13.63;;
46363;SDS011;32071;49.036;9.344;2023-02-12T01:56:17;24.57;;;13.90;;
46363;SDS011;32071;49.036;9.344;2023-02-12T01:58:44;21.47;;;13.70;;
46363;SDS011;32071;49.036;9.344;2023-02-12T02:01:12;25.77;;;14.07;;
46363;SDS011;32071;49.036;9.344;2023-02-12T02:03:42;22.90;;;12.90;;
46363;SDS011;32071;49.036;9.344;2023-02-12T02:06:11;22.97;;;12.47;;
46363;SDS011;32071;49.036;9.344;2023-02-12T02:08:41;30.80;;;15.17;;
46363;SDS011;32071;49.036;9.344;2023-02-12T02:11:06;24.17;;;12.83;;
46363;SDS011;32071;49.036;9.344;2023-02-12T02:13:51;23.70;;;13.27;;
46363;SDS011;32071;49.036;9.344;2023-02-12T02:16:36;22.50;;;13.00;;
46363;SDS011;32071;49.036;9.344;2023-02-12T02:24:46;29.83;;;15.53;;
46363;SDS011;32071;49.036;9.344;2023-02-12T02:27:26;29.23;;;15.20;;
46363;SDS011;32071;49.036;9.344;2023-02-12T02:30:34;27.67;;;14.53;;
46363;SDS011;32071;49.036;9.344;2023-02-12T02:33:18;22.80;;;13.37;;
46363;SDS011;32071;49.036;9.344;2023-02-12T02:36:11;28.90;;;13.60;;
46363;SDS011;32071;49.036;9.344;2023-02-12T02:39:04;24.23;;;13.27;;
46363;SDS011;32071;49.036;9.344;2023-02-12T02:41:52;25.93;;;14.30;;
46363;SDS011;32071;49.036;9.344;2023-02-12T02:44:23;22.63;;;12.73;;
46363;SDS011;32071;49.036;9.344;2023-02-12T02:46:52;23.57;;;14.07;;
46363;SDS011;32071;49.036;9.344;2023-02-12T02:50:07;30.13;;;14.30;;
46363;SDS011;32071;49.036;9.344;2023-02-12T02:52:13;22.97;;;13.40;;
46363;SDS011;32071;49.036;9.344;2023-02-12T02:54:52;23.53;;;12.50;;
46363;SDS011;32071;49.036;9.344;2023-02-12T02:57:23;26.33;;;13.63;;
46363;SDS011;32071;49.036;9.344;2023-02-12T02:59:55;22.17;;;12.70;;
46363;SDS011;32071;49.036;9.344;2023-02-12T03:02:39;23.50;;;12.50;;
46363;SDS011;32071;49.036;9.344;2023-02-12T03:05:14;21.10;;;12.40;;
46363;SDS011;32071;49.036;9.344;2023-02-12T03:07:48;20.27;;;12.57;;
46363;SDS011;32071;49.036;9.344;2023-02-12T03:10:24;24.07;;;13.03;;
46363;SDS011;32071;49.036;9.344;2023-02-12T03:15:43;20.03;;;12.20;;
46363;SDS011;32071;49.036;9.344;2023-02-12T03:18:11;24.40;;;12.40;;
46363;SDS011;32071;49.036;9.344;2023-02-12T03:20:47;23.47;;;13.10;;
46363;SDS011;32071;49.036;9.344;2023-02-12T03:23:19;22.70;;;12.53;;
46363;SDS011;32071;49.036;9.344;2023-02-12T03:25:52;21.50;;;13.00;;
46363;SDS011;32071;49.036;9.344;2023-02-12T03:28:28;24.90;;;12.90;;
46363;SDS011;32071;49.036;9.344;2023-02-12T03:34:04;25.57;;;14.00;;
46363;SDS011;32071;49.036;9.344;2023-02-12T03:42:18;21.83;;;13.03;;
46363;SDS011;32071;49.036;9.344;2023-02-12T03:47:38;21.80;;;11.53;;
46363;SDS011;32071;49.036;9.344;2023-02-12T03:50:13;23.77;;;12.03;;
46363;SDS011;32071;49.036;9.344;2023-02-12T03:52:43;22.87;;;12.10;;
46363;SDS011;32071;49.036;9.344;2023-02-12T03:55:10;20.17;;;12.47;;
46363;SDS011;32071;49.036;9.344;2023-02-12T03:57:41;18.80;;;11.13;;
46363;SDS011;32071;49.036;9.344;2023-02-12T04:00:14;23.80;;;12.30;;
46363;SDS011;32071;49.036;9.344;2023-02-12T04:02:43;26.90;;;13.50;;
46363;SDS011;32071;49.036;9.344;2023-02-12T04:05:17;25.03;;;13.60;;
46363;SDS011;32071;49.036;9.344;2023-02-12T04:07:44;20.97;;;12.30;;
46363;SDS011;32071;49.036;9.344;2023-02-12T04:10:09;20.73;;;11.70;;
46363;SDS011;32071;49.036;9.344;2023-02-12T04:12:38;28.73;;;12.70;;
46363;SDS011;32071;49.036;9.344;2023-02-12T04:17:49;25.17;;;12.10;;
46363;SDS011;32071;49.036;9.344;2023-02-12T04:20:33;24.60;;;12.23;;
46363;SDS011;32071;49.036;9.344;2023-02-12T04:23:22;17.63;;;11.17;;
46363;SDS011;32071;49.036;9.344;2023-02-12T04:28:56;24.93;;;12.00;;
46363;SDS011;32071;49.036;9.344;2023-02-12T04:31:47;19.80;;;12.10;;
46363;SDS011;32071;49.036;9.344;2023-02-12T04:37:15;20.53;;;11.80;;
46363;SDS011;32071;49.036;9.344;2023-02-12T04:39:44;18.40;;;11.00;;
46363;SDS011;32071;49.036;9.344;2023-02-12T04:42:12;27.40;;;12.47;;
46363;SDS011;32071;49.036;9.344;2023-02-12T04:44:38;21.90;;;12.03;;
46363;SDS011;32071;49.036;9.344;2023-02-12T04:47:06;22.83;;;12.10;;
46363;SDS011;32071;49.036;9.344;2023-02-12T04:49:34;22.87;;;12.70;;
46363;SDS011;32071;49.036;9.344;2023-02-12T04:51:59;20.80;;;11.90;;
46363;SDS011;32071;49.036;9.344;2023-02-12T04:54:25;23.93;;;12.67;;
46363;SDS011;32071;49.036;9.344;2023-02-12T04:56:50;22.20;;;12.23;;
46363;SDS011;32071;49.036;9.344;2023-02-12T04:59:16;22.33;;;12.23;;
46363;SDS011;32071;49.036;9.344;2023-02-12T05:01:42;22.47;;;12.03;;
46363;SDS011;32071;49.036;9.344;2023-02-12T05:04:08;24.17;;;11.43;;
46363;SDS011;32071;49.036;9.344;2023-02-12T05:06:37;25.10;;;12.33;;
46363;SDS011;32071;49.036;9.344;2023-02-12T05:09:04;24.37;;;12.47;;
46363;SDS011;32071;49.036;9.344;2023-02-12T05:11:30;24.80;;;13.30;;
46363;SDS011;32071;49.036;9.344;2023-02-12T05:13:56;24.57;;;14.60;;
46363;SDS011;32071;49.036;9.344;2023-02-12T05:16:22;28.17;;;13.03;;
46363;SDS011;32071;49.036;9.344;2023-02-12T05:18:48;24.07;;;13.80;;
46363;SDS011;32071;49.036;9.344;2023-02-12T05:21:13;22.80;;;12.30;;
46363;SDS011;32071;49.036;9.344;2023-02-12T05:23:39;21.73;;;11.20;;
46363;SDS011;32071;49.036;9.344;2023-02-12T05:26:06;20.50;;;11.93;;
46363;SDS011;32071;49.036;9.344;2023-02-12T05:28:36;24.53;;;11.83;;
46363;SDS011;32071;49.036;9.344;2023-02-12T05:31:05;19.13;;;10.57;;
46363;SDS011;32071;49.036;9.344;2023-02-12T05:33:32;23.60;;;12.13;;
46363;SDS011;32071;49.036;9.344;2023-02-12T05:36:05;21.70;;;11.60;;
46363;SDS011;32071;49.036;9.344;2023-02-12T05:38:32;22.80;;;12.20;;
46363;SDS011;32071;49.036;9.344;2023-02-12T05:41:05;22.67;;;12.07;;
46363;SDS011;32071;49.036;9.344;2023-02-12T05:43:33;22.07;;;11.67;;
46363;SDS011;32071;49.036;9.344;2023-02-12T05:45:59;24.40;;;12.77;;
46363;SDS011;32071;49.036;9.344;2023-02-12T05:48:26;24.10;;;12.63;;
46363;SDS011;32071;49.036;9.344;2023-02-12T05:50:52;24.40;;;12.33;;
46363;SDS011;32071;49.036;9.344;2023-02-12T05:53:17;26.97;;;12.30;;
46363;SDS011;32071;49.036;9.344;2023-02-12T05:55:43;22.80;;;12.20;;
46363;SDS011;32071;49.036;9.344;2023-02-12T05:58:08;25.50;;;13.27;;
46363;SDS011;32071;49.036;9.344;2023-02-12T06:00:34;23.10;;;12.30;;
46363;SDS011;32071;49.036;9.344;2023-02-12T06:02:59;18.07;;;10.50;;
46363;SDS011;32071;49.036;9.344;2023-02-12T06:05:25;24.43;;;12.60;;
46363;SDS011;32071;49.036;9.344;2023-02-12T06:07:51;23.20;;;12.30;;
46363;SDS011;32071;49.036;9.344;2023-02-12T06:10:16;21.20;;;13.50;;
46363;SDS011;32071;49.036;9.344;2023-02-12T06:12:42;20.77;;;11.70;;
46363;SDS011;32071;49.036;9.344;2023-02-12T06:15:07;26.97;;;13.40;;
46363;SDS011;32071;49.036;9.344;2023-02-12T06:17:33;23.90;;;13.10;;
46363;SDS011;32071;49.036;9.344;2023-02-12T06:19:59;25.77;;;13.10;;
46363;SDS011;32071;49.036;9.344;2023-02-12T06:22:24;22.60;;;12.37;;
46363;SDS011;32071;49.036;9.344;2023-02-12T06:24:52;26.33;;;13.50;;
46363;SDS011;32071;49.036;9.344;2023-02-12T06:27:17;25.50;;;14.30;;
46363;SDS011;32071;49.036;9.344;2023-02-12T06:29:44;32.63;;;16.47;;
46363;SDS011;32071;49.036;9.344;2023-02-12T06:32:10;37.90;;;18.60;;
46363;SDS011;32071;49.036;9.344;2023-02-12T06:34:37;32.77;;;18.37;;
46363;SDS011;32071;49.036;9.344;2023-02-12T06:37:03;38.30;;;20.03;;
46363;SDS011;32071;49.036;9.344;2023-02-12T06:39:29;34.17;;;19.13;;
46363;SDS011;32071;49.036;9.344;2023-02-12T06:41:55;32.67;;;15.13;;
46363;SDS011;32071;49.036;9.344;2023-02-12T06:44:20;25.60;;;14.87;;
46363;SDS011;32071;49.036;9.344;2023-02-12T06:46:46;27.00;;;15.10;;
46363;SDS011;32071;49.036;9.344;2023-02-12T06:49:12;30.13;;;15.20;;
46363;SDS011;32071;49.036;9.344;2023-02-12T06:51:41;29.40;;;15.60;;
46363;SDS011;32071;49.036;9.344;2023-02-12T06:54:13;29.20;;;15.43;;
46363;SDS011;32071;49.036;9.344;2023-02-12T06:56:40;32.30;;;17.13;;
46363;SDS011;32071;49.036;9.344;2023-02-12T06:59:05;32.80;;;15.77;;
46363;SDS011;32071;49.036;9.344;2023-02-12T07:01:31;36.70;;;16.60;;
46363;SDS011;32071;49.036;9.344;2023-02-12T07:03:57;34.63;;;18.10;;
46363;SDS011;32071;49.036;9.344;2023-02-12T07:06:25;30.73;;;16.77;;
46363;SDS011;32071;49.036;9.344;2023-02-12T07:08:52;29.77;;;15.73;;
46363;SDS011;32071;49.036;9.344;2023-02-12T07:11:21;36.27;;;17.70;;
46363;SDS011;32071;49.036;9.344;2023-02-12T07:13:48;96.53;;;36.37;;
46363;SDS011;32071;49.036;9.344;2023-02-12T07:16:14;71.20;;;30.40;;
46363;SDS011;32071;49.036;9.344;2023-02-12T07:18:40;41.43;;;21.27;;
46363;SDS011;32071;49.036;9.344;2023-02-12T07:21:08;32.77;;;17.50;;
46363;SDS011;32071;49.036;9.344;2023-02-12T07:23:36;34.67;;;18.20;;
46363;SDS011;32071;49.036;9.344;2023-02-12T07:26:04;37.20;;;18.47;;
46363;SDS011;32071;49.036;9.344;2023-02-12T07:28:31;34.30;;;19.20;;
46363;SDS011;32071;49.036;9.344;2023-02-12T07:30:57;33.73;;;18.50;;
46363;SDS011;32071;49.036;9.344;2023-02-12T07:33:24;36.77;;;18.80;;
46363;SDS011;32071;49.036;9.344;2023-02-12T07:35:49;40.70;;;20.70;;
46363;SDS011;32071;49.036;9.344;2023-02-12T07:38:15;36.37;;;20.07;;
46363;SDS011;32071;49.036;9.344;2023-02-12T07:40:40;33.97;;;19.40;;
46363;SDS011;32071;49.036;9.344;2023-02-12T07:43:06;39.13;;;21.57;;
46363;SDS011;32071;49.036;9.344;2023-02-12T07:45:31;36.47;;;20.67;;
46363;SDS011;32071;49.036;9.344;2023-02-12T07:47:57;38.07;;;21.60;;
46363;SDS011;32071;49.036;9.344;2023-02-12T07:50:22;39.33;;;20.73;;
46363;SDS011;32071;49.036;9.344;2023-02-12T07:52:48;40.53;;;20.53;;
46363;SDS011;32071;49.036;9.344;2023-02-12T07:55:15;37.40;;;19.77;;
46363;SDS011;32071;49.036;9.344;2023-02-12T07:57:41;39.83;;;20.27;;
46363;SDS011;32071;49.036;9.344;2023-02-12T08:00:07;36.50;;;19.47;;
46363;SDS011;32071;49.036;9.344;2023-02-12T08:02:33;41.57;;;21.87;;
46363;SDS011;32071;49.036;9.344;2023-02-12T08:04:59;42.80;;;22.67;;
46363;SDS011;32071;49.036;9.344;2023-02-12T08:07:24;43.93;;;22.77;;
46363;SDS011;32071;49.036;9.344;2023-02-12T08:09:50;41.93;;;22.30;;
46363;SDS011;32071;49.036;9.344;2023-02-12T08:12:16;45.90;;;23.70;;
46363;SDS011;32071;49.036;9.344;2023-02-12T08:14:42;41.13;;;22.73;;
46363;SDS011;32071;49.036;9.344;2023-02-12T08:17:08;41.20;;;23.40;;
46363;SDS011;32071;49.036;9.344;2023-02-12T08:19:34;46.30;;;22.13;;
46363;SDS011;32071;49.036;9.344;2023-02-12T08:21:59;43.60;;;23.70;;
46363;SDS011;32071;49.036;9.344;2023-02-12T08:24:28;48.03;;;24.40;;
46363;SDS011;32071;49.036;9.344;2023-02-12T08:26:54;45.73;;;24.47;;
46363;SDS011;32071;49.036;9.344;2023-02-12T08:29:24;43.73;;;23.73;;
46363;SDS011;32071;49.036;9.344;2023-02-12T08:31:56;38.40;;;21.27;;
46363;SDS011;32071;49.036;9.344;2023-02-12T08:34:33;43.93;;;24.37;;
46363;SDS011;32071;49.036;9.344;2023-02-12T08:36:59;40.50;;;22.87;;
46363;SDS011;32071;49.036;9.344;2023-02-12T08:39:26;39.30;;;22.80;;
46363;SDS011;32071;49.036;9.344;2023-02-12T08:41:54;48.33;;;23.27;;
46363;SDS011;32071;49.036;9.344;2023-02-12T08:44:20;36.03;;;20.50;;
46363;SDS011;32071;49.036;9.344;2023-02-12T08:46:47;35.33;;;21.70;;
46363;SDS011;32071;49.036;9.344;2023-02-12T08:49:32;42.43;;;23.23;;
46363;SDS011;32071;49.036;9.344;2023-02-12T08:51:58;40.93;;;22.93;;
46363;SDS011;32071;49.036;9.344;2023-02-12T08:54:26;47.03;;;25.30;;
46363;SDS011;32071;49.036;9.344;2023-02-12T08:56:54;43.57;;;24.30;;
46363;SDS011;32071;49.036;9.344;2023-02-12T08:59:23;42.33;;;24.57;;
46363;SDS011;32071;49.036;9.344;2023-02-12T09:01:49;45.13;;;25.40;;
46363;SDS011;32071;49.036;9.344;2023-02-12T09:04:25;52.33;;;26.97;;
46363;SDS011;32071;49.036;9.344;2023-02-12T09:06:52;44.73;;;25.13;;
46363;SDS011;32071;49.036;9.344;2023-02-12T09:09:18;47.73;;;26.63;;
46363;SDS011;32071;49.036;9.344;2023-02-12T09:11:44;46.90;;;26.27;;
46363;SDS011;32071;49.036;9.344;2023-02-12T09:14:11;44.07;;;25.50;;
46363;SDS011;32071;49.036;9.344;2023-02-12T09:16:39;47.60;;;25.83;;
46363;SDS011;32071;49.036;9.344;2023-02-12T09:19:05;61.27;;;37.03;;
46363;SDS011;32071;49.036;9.344;2023-02-12T09:21:31;66.83;;;38.83;;
46363;SDS011;32071;49.036;9.344;2023-02-12T09:23:57;51.40;;;29.80;;
46363;SDS011;32071;49.036;9.344;2023-02-12T09:26:23;43.23;;;24.13;;
46363;SDS011;32071;49.036;9.344;2023-02-12T09:28:52;35.13;;;20.90;;
46363;SDS011;32071;49.036;9.344;2023-02-12T09:31:22;36.23;;;19.87;;
46363;SDS011;32071;49.036;9.344;2023-02-12T09:33:50;33.93;;;18.40;;
46363;SDS011;32071;49.036;9.344;2023-02-12T09:36:18;32.20;;;18.57;;
46363;SDS011;32071;49.036;9.344;2023-02-12T09:38:44;41.43;;;20.03;;
46363;SDS011;32071;49.036;9.344;2023-02-12T09:43:47;31.17;;;17.57;;
46363;SDS011;32071;49.036;9.344;2023-02-12T09:51:58;25.20;;;14.03;;
46363;SDS011;32071;49.036;9.344;2023-02-12T09:54:25;24.83;;;13.00;;
46363;SDS011;32071;49.036;9.344;2023-02-12T09:56:58;23.30;;;12.10;;
46363;SDS011;32071;49.036;9.344;2023-02-12T09:59:36;20.93;;;10.70;;
46363;SDS011;32071;49.036;9.344;2023-02-12T10:02:13;23.50;;;12.00;;
46363;SDS011;32071;49.036;9.344;2023-02-12T10:04:44;29.27;;;15.07;;
46363;SDS011;32071;49.036;9.344;2023-02-12T10:12:33;14.57;;;7.57;;
46363;SDS011;32071;49.036;9.344;2023-02-12T10:17:40;8.10;;;4.83;;
46363;SDS011;32071;49.036;9.344;2023-02-12T10:23:01;7.30;;;4.17;;
46363;SDS011;32071;49.036;9.344;2023-02-12T10:25:49;7.83;;;4.20;;
46363;SDS011;32071;49.036;9.344;2023-02-12T10:28:18;9.17;;;4.57;;
46363;SDS011;32071;49.036;9.344;2023-02-12T10:39:00;4.40;;;3.30;;
46363;SDS011;32071;49.036;9.344;2023-02-12T10:41:29;5.10;;;3.07;;
46363;SDS011;32071;49.036;9.344;2023-02-12T10:43:56;4.80;;;2.83;;
46363;SDS011;32071;49.036;9.344;2023-02-12T10:46:22;4.20;;;3.10;;
46363;SDS011;32071;49.036;9.344;2023-02-12T10:48:48;3.90;;;3.20;;
46363;SDS011;32071;49.036;9.344;2023-02-12T10:56:57;3.20;;;2.57;;
46363;SDS011;32071;49.036;9.344;2023-02-12T10:59:23;4.40;;;3.30;;
46363;SDS011;32071;49.036;9.344;2023-02-12T11:01:49;3.57;;;2.60;;
46363;SDS011;32071;49.036;9.344;2023-02-12T11:04:20;3.83;;;2.70;;
46363;SDS011;32071;49.036;9.344;2023-02-12T11:09:33;4.03;;;2.77;;
46363;SDS011;32071;49.036;9.344;2023-02-12T11:12:52;3.60;;;2.50;;
46363;SDS011;32071;49.036;9.344;2023-02-12T11:15:02;4.90;;;2.70;;
46363;SDS011;32071;49.036;9.344;2023-02-12T11:17:38;4.43;;;3.10;;
46363;SDS011;32071;49.036;9.344;2023-02-12T11:22:33;5.20;;;3.37;;
46363;SDS011;32071;49.036;9.344;2023-02-12T11:25:00;4.67;;;2.83;;
46363;SDS011;32071;49.036;9.344;2023-02-12T11:27:27;3.50;;;2.97;;
46363;SDS011;32071;49.036;9.344;2023-02-12T11:32:42;4.30;;;3.07;;
46363;SDS011;32071;49.036;9.344;2023-02-12T11:35:16;6.60;;;4.63;;
46363;SDS011;32071;49.036;9.344;2023-02-12T11:37:57;4.57;;;4.03;;
46363;SDS011;32071;49.036;9.344;2023-02-12T11:40:26;7.20;;;4.50;;
46363;SDS011;32071;49.036;9.344;2023-02-12T11:42:53;6.13;;;4.13;;
46363;SDS011;32071;49.036;9.344;2023-02-12T11:45:24;7.53;;;5.53;;
46363;SDS011;32071;49.036;9.344;2023-02-12T11:47:55;7.00;;;4.33;;
46363;SDS011;32071;49.036;9.344;2023-02-12T11:50:28;8.00;;;5.00;;
46363;SDS011;32071;49.036;9.344;2023-02-12T11:52:58;7.70;;;4.40;;
46363;SDS011;32071;49.036;9.344;2023-02-12T11:55:31;8.27;;;4.63;;
46363;SDS011;32071;49.036;9.344;2023-02-12T11:58:03;7.17;;;4.73;;
46363;SDS011;32071;49.036;9.344;2023-02-12T12:00:45;7.87;;;5.37;;
46363;SDS011;32071;49.036;9.344;2023-02-12T12:03:18;6.50;;;4.40;;
46363;SDS011;32071;49.036;9.344;2023-02-12T12:06:13;7.70;;;5.00;;
46363;SDS011;32071;49.036;9.344;2023-02-12T12:09:04;4.70;;;3.70;;
46363;SDS011;32071;49.036;9.344;2023-02-12T12:11:46;5.40;;;3.80;;
46363;SDS011;32071;49.036;9.344;2023-02-12T12:14:33;7.27;;;5.20;;
46363;SDS011;32071;49.036;9.344;2023-02-12T12:17:45;5.93;;;3.87;;
46363;SDS011;32071;49.036;9.344;2023-02-12T12:20:31;5.33;;;3.90;;
46363;SDS011;32071;49.036;9.344;2023-02-12T12:23:10;5.47;;;3.80;;
46363;SDS011;32071;49.036;9.344;2023-02-12T12:25:44;5.20;;;4.00;;
46363;SDS011;32071;49.036;9.344;2023-02-12T12:30:58;7.53;;;5.63;;
46363;SDS011;32071;49.036;9.344;2023-02-12T12:34:15;6.37;;;4.03;;
46363;SDS011;32071;49.036;9.344;2023-02-12T12:42:39;6.47;;;4.93;;
46363;SDS011;32071;49.036;9.344;2023-02-12T12:48:01;8.80;;;5.20;;
46363;SDS011;32071;49.036;9.344;2023-02-12T12:56:25;12.07;;;5.83;;
46363;SDS011;32071;49.036;9.344;2023-02-12T13:15:36;7.90;;;5.17;;
46363;SDS011;32071;49.036;9.344;2023-02-12T13:28:45;7.40;;;4.73;;
46363;SDS011;32071;49.036;9.344;2023-02-12T13:31:21;9.43;;;6.30;;
46363;SDS011;32071;49.036;9.344;2023-02-12T13:33:54;8.90;;;5.07;;
46363;SDS011;32071;49.036;9.344;2023-02-12T13:36:23;11.40;;;6.30;;
46363;SDS011;32071;49.036;9.344;2023-02-12T13:41:22;11.87;;;6.00;;
46363;SDS011;32071;49.036;9.344;2023-02-12T13:43:57;11.00;;;6.17;;
46363;SDS011;32071;49.036;9.344;2023-02-12T13:49:09;8.70;;;5.60;;
46363;SDS011;32071;49.036;9.344;2023-02-12T13:51:48;13.73;;;6.40;;
46363;SDS011;32071;49.036;9.344;2023-02-12T13:54:35;9.30;;;6.40;;
46363;SDS011;32071;49.036;9.344;2023-02-12T13:57:11;10.60;;;5.77;;
46363;SDS011;32071;49.036;9.344;2023-02-12T13:59:40;8.57;;;6.00;;
46363;SDS011;32071;49.036;9.344;2023-02-12T14:04:37;8.40;;;5.40;;
46363;SDS011;32071;49.036;9.344;2023-02-12T14:07:16;9.57;;;6.13;;
46363;SDS011;32071;49.036;9.344;2023-02-12T14:14:48;8.40;;;5.77;;
46363;SDS011;32071;49.036;9.344;2023-02-12T14:20:19;7.30;;;5.70;;
46363;SDS011;32071;49.036;9.344;2023-02-12T14:23:02;9.30;;;7.10;;
46363;SDS011;32071;49.036;9.344;2023-02-12T14:25:29;12.97;;;7.90;;
46363;SDS011;32071;49.036;9.344;2023-02-12T14:28:06;9.03;;;6.00;;
46363;SDS011;32071;49.036;9.344;2023-02-12T14:33:43;9.20;;;5.47;;
46363;SDS011;32071;49.036;9.344;2023-02-12T14:41:44;7.13;;;5.40;;
46363;SDS011;32071;49.036;9.344;2023-02-12T14:46:53;6.30;;;4.77;;
46363;SDS011;32071;49.036;9.344;2023-02-12T14:52:03;5.40;;;4.50;;
46363;SDS011;32071;49.036;9.344;2023-02-12T14:54:44;8.70;;;4.73;;
46363;SDS011;32071;49.036;9.344;2023-02-12T14:57:20;7.77;;;4.90;;
46363;SDS011;32071;49.036;9.344;2023-02-12T14:59:56;6.93;;;4.37;;
46363;SDS011;32071;49.036;9.344;2023-02-12T15:02:26;7.03;;;4.83;;
46363;SDS011;32071;49.036;9.344;2023-02-12T15:04:58;5.57;;;4.30;;
46363;SDS011;32071;49.036;9.344;2023-02-12T15:07:45;7.17;;;4.60;;
46363;SDS011;32071;49.036;9.344;2023-02-12T15:10:19;6.60;;;4.07;;
46363;SDS011;32071;49.036;9.344;2023-02-12T15:12:50;4.50;;;3.30;;
46363;SDS011;32071;49.036;9.344;2023-02-12T15:15:52;5.90;;;4.00;;
46363;SDS011;32071;49.036;9.344;2023-02-12T15:18:26;5.60;;;3.87;;
46363;SDS011;32071;49.036;9.344;2023-02-12T15:23:38;5.70;;;3.70;;
46363;SDS011;32071;49.036;9.344;2023-02-12T15:26:08;6.97;;;4.40;;
46363;SDS011;32071;49.036;9.344;2023-02-12T15:28:40;6.77;;;4.90;;
46363;SDS011;32071;49.036;9.344;2023-02-12T15:31:07;6.40;;;4.00;;
46363;SDS011;32071;49.036;9.344;2023-02-12T15:33:35;5.40;;;4.20;;
46363;SDS011;32071;49.036;9.344;2023-02-12T15:36:08;6.17;;;4.00;;
46363;SDS011;32071;49.036;9.344;2023-02-12T15:38:36;4.80;;;3.80;;
46363;SDS011;32071;49.036;9.344;2023-02-12T15:41:06;6.53;;;4.60;;
46363;SDS011;32071;49.036;9.344;2023-02-12T15:43:34;5.63;;;3.97;;
46363;SDS011;32071;49.036;9.344;2023-02-12T15:46:04;5.57;;;3.87;;
46363;SDS011;32071;49.036;9.344;2023-02-12T15:48:35;6.17;;;3.77;;
46363;SDS011;32071;49.036;9.344;2023-02-12T15:51:13;4.70;;;3.47;;
46363;SDS011;32071;49.036;9.344;2023-02-12T15:53:45;6.07;;;3.47;;
46363;SDS011;32071;49.036;9.344;2023-02-12T15:56:12;3.90;;;3.43;;
46363;SDS011;32071;49.036;9.344;2023-02-12T16:01:25;7.37;;;3.90;;
46363;SDS011;32071;49.036;9.344;2023-02-12T16:03:53;7.20;;;3.90;;
46363;SDS011;32071;49.036;9.344;2023-02-12T16:06:25;5.50;;;3.73;;
46363;SDS011;32071;49.036;9.344;2023-02-12T16:09:02;5.83;;;3.60;;
46363;SDS011;32071;49.036;9.344;2023-02-12T16:11:32;6.80;;;4.30;;
46363;SDS011;32071;49.036;9.344;2023-02-12T16:14:00;6.33;;;3.60;;
46363;SDS011;32071;49.036;9.344;2023-02-12T16:16:29;6.03;;;4.03;;
46363;SDS011;32071;49.036;9.344;2023-02-12T16:19:21;7.60;;;4.70;;
46363;SDS011;32071;49.036;9.344;2023-02-12T16:24:27;8.93;;;4.63;;
46363;SDS011;32071;49.036;9.344;2023-02-12T16:26:56;5.67;;;3.83;;
46363;SDS011;32071;49.036;9.344;2023-02-12T16:29:26;6.83;;;4.23;;
46363;SDS011;32071;49.036;9.344;2023-02-12T16:31:58;7.33;;;4.10;;
46363;SDS011;32071;49.036;9.344;2023-02-12T16:34:36;7.40;;;4.37;;
46363;SDS011;32071;49.036;9.344;2023-02-12T16:37:21;6.10;;;3.43;;
46363;SDS011;32071;49.036;9.344;2023-02-12T16:47:50;5.17;;;3.13;;
46363;SDS011;32071;49.036;9.344;2023-02-12T16:50:37;4.43;;;2.83;;
46363;SDS011;32071;49.036;9.344;2023-02-12T16:55:59;6.63;;;3.37;;
46363;SDS011;32071;49.036;9.344;2023-02-12T16:58:26;6.13;;;3.30;;
46363;SDS011;32071;49.036;9.344;2023-02-12T17:00:53;12.13;;;3.50;;
46363;SDS011;32071;49.036;9.344;2023-02-12T17:03:20;3.70;;;2.80;;
46363;SDS011;32071;49.036;9.344;2023-02-12T17:05:47;6.03;;;3.20;;
46363;SDS011;32071;49.036;9.344;2023-02-12T17:08:16;4.97;;;3.13;;
46363;SDS011;32071;49.036;9.344;2023-02-12T17:10:46;4.00;;;2.73;;
46363;SDS011;32071;49.036;9.344;2023-02-12T17:13:15;6.13;;;4.37;;
46363;SDS011;32071;49.036;9.344;2023-02-12T17:15:47;8.10;;;4.57;;
46363;SDS011;32071;49.036;9.344;2023-02-12T17:18:16;8.67;;;4.50;;
46363;SDS011;32071;49.036;9.344;2023-02-12T17:20:43;7.70;;;4.27;;
46363;SDS011;32071;49.036;9.344;2023-02-12T17:23:12;7.87;;;4.80;;
46363;SDS011;32071;49.036;9.344;2023-02-12T17:25:37;6.70;;;4.13;;
46363;SDS011;32071;49.036;9.344;2023-02-12T17:28:03;12.90;;;5.20;;
46363;SDS011;32071;49.036;9.344;2023-02-12T17:30:29;7.57;;;5.43;;
46363;SDS011;32071;49.036;9.344;2023-02-12T17:32:56;6.00;;;3.63;;